sensor_id;sensor_type;location;lat;lon;timestamp;P1;durP1;ratioP1;P2;durP2;ratioP2
8885;SDS011;4479;51.162;13.906;2022-09-13T00:09:24;3.33;;;2.00;;
8885;SDS011;4479;51.162;13.906;2022-09-13T00:19:28;2.30;;;2.10;;
8885;SDS011;4479;51.162;13.906;2022-09-13T00:29:31;2.27;;;2.07;;
8885;SDS011;4479;51.162;13.906;2022-09-13T00:39:35;1.90;;;1.80;;
8885;SDS011;4479;51.162;13.906;2022-09-13T00:49:37;2.73;;;1.90;;
8885;SDS011;4479;51.162;13.906;2022-09-13T00:59:44;2.70;;;1.90;;
8885;SDS011;4479;51.162;13.906;2022-09-13T01:09:52;2.30;;;2.03;;
8885;SDS011;4479;51.162;13.906;2022-09-13T01:19:57;3.40;;;2.03;;
8885;SDS011;4479;51.162;13.906;2022-09-13T01:30:09;2.30;;;2.10;;
8885;SDS011;4479;51.162;13.906;2022-09-13T01:40:16;2.27;;;2.07;;
8885;SDS011;4479;51.162;13.906;2022-09-13T01:50:35;2.23;;;2.03;;
8885;SDS011;4479;51.162;13.906;2022-09-13T02:00:40;3.03;;;1.90;;
8885;SDS011;4479;51.162;13.906;2022-09-13T02:10:49;2.47;;;2.27;;
8885;SDS011;4479;51.162;13.906;2022-09-13T02:20:57;2.23;;;2.03;;
8885;SDS011;4479;51.162;13.906;2022-09-13T02:31:06;2.30;;;2.10;;
8885;SDS011;4479;51.162;13.906;2022-09-13T02:41:11;2.70;;;2.50;;
8885;SDS011;4479;51.162;13.906;2022-09-13T02:51:19;2.40;;;2.20;;
8885;SDS011;4479;51.162;13.906;2022-09-13T03:01:25;2.60;;;2.40;;
8885;SDS011;4479;51.162;13.906;2022-09-13T03:11:34;2.80;;;2.60;;
8885;SDS011;4479;51.162;13.906;2022-09-13T03:21:56;2.77;;;2.40;;
8885;SDS011;4479;51.162;13.906;2022-09-13T04:41:07;3.10;;;2.80;;
8885;SDS011;4479;51.162;13.906;2022-09-13T04:51:10;3.10;;;2.83;;
8885;SDS011;4479;51.162;13.906;2022-09-13T05:01:15;3.57;;;3.20;;
8885;SDS011;4479;51.162;13.906;2022-09-13T05:11:19;4.43;;;3.00;;
8885;SDS011;4479;51.162;13.906;2022-09-13T05:21:25;3.27;;;2.97;;
8885;SDS011;4479;51.162;13.906;2022-09-13T05:31:30;5.50;;;3.37;;
8885;SDS011;4479;51.162;13.906;2022-09-13T05:41:35;3.50;;;3.17;;
8885;SDS011;4479;51.162;13.906;2022-09-13T05:51:38;3.60;;;3.30;;
8885;SDS011;4479;51.162;13.906;2022-09-13T06:01:42;5.60;;;3.33;;
8885;SDS011;4479;51.162;13.906;2022-09-13T12:37:06;2.30;;;2.10;;
8885;SDS011;4479;51.162;13.906;2022-09-13T12:47:30;2.40;;;2.20;;
8885;SDS011;4479;51.162;13.906;2022-09-13T12:57:58;2.73;;;1.93;;
8885;SDS011;4479;51.162;13.906;2022-09-13T13:08:24;1.90;;;1.80;;
8885;SDS011;4479;51.162;13.906;2022-09-13T13:18:30;1.87;;;1.77;;
8885;SDS011;4479;51.162;13.906;2022-09-13T13:39:31;1.37;;;1.20;;
8885;SDS011;4479;51.162;13.906;2022-09-13T13:49:42;1.53;;;1.43;;
8885;SDS011;4479;51.162;13.906;2022-09-13T13:59:47;1.60;;;1.50;;
8885;SDS011;4479;51.162;13.906;2022-09-13T14:09:52;1.63;;;1.40;;
8885;SDS011;4479;51.162;13.906;2022-09-13T14:20:02;1.93;;;1.57;;
8885;SDS011;4479;51.162;13.906;2022-09-13T14:30:16;1.93;;;1.73;;
8885;SDS011;4479;51.162;13.906;2022-09-13T14:40:21;1.63;;;1.53;;
8885;SDS011;4479;51.162;13.906;2022-09-13T14:50:27;1.60;;;1.43;;
8885;SDS011;4479;51.162;13.906;2022-09-13T15:00:34;2.63;;;1.60;;
8885;SDS011;4479;51.162;13.906;2022-09-13T15:10:41;2.67;;;1.40;;
8885;SDS011;4479;51.162;13.906;2022-09-13T15:20:46;2.10;;;1.90;;
8885;SDS011;4479;51.162;13.906;2022-09-13T15:30:50;1.43;;;1.33;;
8885;SDS011;4479;51.162;13.906;2022-09-13T15:41:00;2.40;;;1.60;;
8885;SDS011;4479;51.162;13.906;2022-09-13T15:51:13;1.50;;;1.40;;
8885;SDS011;4479;51.162;13.906;2022-09-13T16:01:17;1.60;;;1.37;;
8885;SDS011;4479;51.162;13.906;2022-09-13T16:11:20;1.40;;;1.30;;
8885;SDS011;4479;51.162;13.906;2022-09-13T16:21:24;1.60;;;1.50;;
8885;SDS011;4479;51.162;13.906;2022-09-13T16:31:28;1.70;;;1.60;;
8885;SDS011;4479;51.162;13.906;2022-09-13T16:41:32;1.73;;;1.63;;
8885;SDS011;4479;51.162;13.906;2022-09-13T16:51:35;5.17;;;2.00;;
8885;SDS011;4479;51.162;13.906;2022-09-13T17:01:39;4.97;;;2.47;;
8885;SDS011;4479;51.162;13.906;2022-09-13T17:11:42;3.00;;;1.97;;
8885;SDS011;4479;51.162;13.906;2022-09-13T17:21:47;2.03;;;1.83;;
8885;SDS011;4479;51.162;13.906;2022-09-13T17:31:50;3.03;;;2.13;;
8885;SDS011;4479;51.162;13.906;2022-09-13T17:41:56;3.20;;;1.67;;
8885;SDS011;4479;51.162;13.906;2022-09-13T17:51:58;1.80;;;1.70;;
8885;SDS011;4479;51.162;13.906;2022-09-13T18:02:03;2.63;;;1.80;;
8885;SDS011;4479;51.162;13.906;2022-09-13T18:12:06;1.97;;;1.83;;
8885;SDS011;4479;51.162;13.906;2022-09-13T18:22:10;2.00;;;1.77;;
8885;SDS011;4479;51.162;13.906;2022-09-13T18:32:12;3.00;;;1.97;;
8885;SDS011;4479;51.162;13.906;2022-09-13T18:42:16;2.73;;;1.83;;
8885;SDS011;4479;51.162;13.906;2022-09-13T18:52:19;2.13;;;1.83;;
8885;SDS011;4479;51.162;13.906;2022-09-13T19:02:23;1.77;;;1.67;;
8885;SDS011;4479;51.162;13.906;2022-09-13T19:12:25;2.17;;;2.00;;
8885;SDS011;4479;51.162;13.906;2022-09-13T19:22:29;9.93;;;7.30;;
8885;SDS011;4479;51.162;13.906;2022-09-13T19:32:32;6.63;;;5.83;;
8885;SDS011;4479;51.162;13.906;2022-09-13T19:42:36;3.07;;;2.70;;
8885;SDS011;4479;51.162;13.906;2022-09-13T19:52:39;4.10;;;2.87;;
8885;SDS011;4479;51.162;13.906;2022-09-13T20:02:42;2.50;;;2.30;;
8885;SDS011;4479;51.162;13.906;2022-09-13T20:12:47;2.27;;;2.03;;
8885;SDS011;4479;51.162;13.906;2022-09-13T20:22:54;2.30;;;2.10;;
8885;SDS011;4479;51.162;13.906;2022-09-13T20:32:57;2.33;;;2.13;;
8885;SDS011;4479;51.162;13.906;2022-09-13T20:43:01;2.50;;;1.73;;
8885;SDS011;4479;51.162;13.906;2022-09-13T20:53:04;2.20;;;2.00;;
8885;SDS011;4479;51.162;13.906;2022-09-13T21:03:07;2.17;;;2.00;;
8885;SDS011;4479;51.162;13.906;2022-09-13T21:13:10;2.57;;;2.17;;
8885;SDS011;4479;51.162;13.906;2022-09-13T21:23:14;2.47;;;2.27;;
8885;SDS011;4479;51.162;13.906;2022-09-13T21:33:17;2.73;;;2.30;;
8885;SDS011;4479;51.162;13.906;2022-09-13T21:43:21;2.50;;;2.30;;
8885;SDS011;4479;51.162;13.906;2022-09-13T21:53:26;5.17;;;2.40;;
8885;SDS011;4479;51.162;13.906;2022-09-13T22:03:30;2.47;;;2.27;;
8885;SDS011;4479;51.162;13.906;2022-09-13T22:13:34;2.50;;;2.30;;
8885;SDS011;4479;51.162;13.906;2022-09-13T22:23:45;2.60;;;2.40;;
8885;SDS011;4479;51.162;13.906;2022-09-13T22:33:48;3.60;;;2.43;;
8885;SDS011;4479;51.162;13.906;2022-09-13T22:43:53;4.10;;;2.20;;
8885;SDS011;4479;51.162;13.906;2022-09-13T22:53:55;2.40;;;2.20;;
8885;SDS011;4479;51.162;13.906;2022-09-13T23:04:00;5.10;;;2.57;;
8885;SDS011;4479;51.162;13.906;2022-09-13T23:14:04;3.27;;;2.90;;
8885;SDS011;4479;51.162;13.906;2022-09-13T23:24:12;4.07;;;2.67;;
8885;SDS011;4479;51.162;13.906;2022-09-13T23:34:17;5.50;;;3.10;;
8885;SDS011;4479;51.162;13.906;2022-09-13T23:44:21;4.23;;;3.30;;
8885;SDS011;4479;51.162;13.906;2022-09-13T23:54:23;3.50;;;3.20;;
